createdAt,value
2023-04-06T00:00:34.419Z,98412.19
2023-04-06T00:03:01.345Z,98405.00
2023-04-06T00:05:29.023Z,98403.00
2023-04-06T00:07:56.939Z,98395.72
2023-04-06T00:10:23.852Z,98401.28
2023-04-06T00:12:50.439Z,98407.00
2023-04-06T00:15:17.054Z,98398.16
2023-04-06T00:17:43.991Z,98396.50
2023-04-06T00:20:11.159Z,98380.53
2023-04-06T00:22:37.849Z,98390.44
2023-04-06T00:25:04.701Z,98389.94
2023-04-06T00:27:31.377Z,98390.25
2023-04-06T00:29:57.913Z,98380.09
2023-04-06T00:32:24.796Z,98381.66
2023-04-06T00:34:52.649Z,98380.63
2023-04-06T00:37:20.136Z,98383.25
2023-04-06T00:39:46.707Z,98373.13
2023-04-06T00:42:14.739Z,98380.28
2023-04-06T00:44:44.715Z,98380.41
2023-04-06T00:47:11.291Z,98379.91
2023-04-06T00:49:37.830Z,98369.91
2023-04-06T00:52:04.561Z,98378.25
2023-04-06T00:54:31.766Z,98362.94
2023-04-06T00:56:59.441Z,98362.06
2023-04-06T00:59:29.606Z,98319.25
2023-04-06T01:01:57.315Z,98366.69
2023-04-06T01:04:34.218Z,98362.13
2023-04-06T01:07:02.214Z,98361.75
2023-04-06T01:09:36.657Z,98319.72
2023-04-06T01:12:09.052Z,98348.75
2023-04-06T01:14:36.089Z,98357.03
2023-04-06T01:17:02.799Z,98350.47
2023-04-06T01:19:32.049Z,98360.31
2023-04-06T01:21:59.022Z,98357.03
2023-04-06T01:24:31.873Z,98348.94
2023-04-06T01:27:18.675Z,98348.94
2023-04-06T01:30:18.403Z,98340.91
2023-04-06T01:32:58.513Z,98340.38
2023-04-06T01:35:37.614Z,98344.59
2023-04-06T01:38:17.309Z,98342.97
2023-04-06T01:40:44.973Z,98338.69
2023-04-06T01:43:13.245Z,98338.22
2023-04-06T01:45:55.355Z,98344.09
2023-04-06T01:48:23.586Z,98340.16
2023-04-06T01:50:50.268Z,98335.59
2023-04-06T01:53:22.730Z,98337.38
2023-04-06T01:55:50.444Z,98335.47
2023-04-06T01:58:33.554Z,98330.50
2023-04-06T02:01:01.311Z,98282.56
2023-04-06T02:03:34.537Z,98324.97
2023-04-06T02:06:07.142Z,98328.84
2023-04-06T02:08:38.488Z,98328.66
2023-04-06T02:11:05.007Z,98329.50
2023-04-06T02:13:38.623Z,98334.72
2023-04-06T02:16:05.750Z,98330.09
2023-04-06T02:18:34.872Z,98336.38
2023-04-06T02:21:01.676Z,98328.50
2023-04-06T02:23:28.596Z,98313.47
2023-04-06T02:25:57.222Z,98328.97
2023-04-06T02:28:24.903Z,98327.84
2023-04-06T02:30:51.680Z,98329.50
2023-04-06T02:33:19.163Z,98325.78
2023-04-06T02:35:48.078Z,98318.47
2023-04-06T02:38:14.923Z,98323.88
2023-04-06T02:40:41.637Z,98322.84
2023-04-06T02:43:21.782Z,98323.81
2023-04-06T02:45:51.983Z,98316.09
2023-04-06T02:48:21.230Z,98317.84
2023-04-06T02:50:47.896Z,98314.88
2023-04-06T02:53:14.445Z,98313.22
2023-04-06T02:55:41.473Z,98310.94
2023-04-06T02:58:08.128Z,98306.06
2023-04-06T03:00:56.704Z,98312.25
2023-04-06T03:03:23.611Z,98305.00
2023-04-06T03:05:50.651Z,98298.66
2023-04-06T03:08:24.254Z,98298.59
2023-04-06T03:10:51.131Z,98311.31
2023-04-06T03:13:19.181Z,98306.22
2023-04-06T03:15:49.193Z,98310.19
2023-04-06T03:18:23.560Z,98301.88
2023-04-06T03:20:52.540Z,98311.34
2023-04-06T03:23:22.056Z,98312.47
2023-04-06T03:25:53.228Z,98298.72
2023-04-06T03:28:21.644Z,98309.50
2023-04-06T03:30:55.248Z,98308.09
2023-04-06T03:33:57.271Z,98313.09
2023-04-06T03:36:28.443Z,98311.75
2023-04-06T03:38:57.250Z,98308.25
2023-04-06T03:41:23.909Z,98315.81
2023-04-06T03:44:16.426Z,98313.25
2023-04-06T03:46:44.714Z,98308.34
2023-04-06T03:49:11.734Z,98295.91
2023-04-06T03:51:39.922Z,98309.97
2023-04-06T03:54:07.403Z,98235.94
2023-04-06T03:56:33.843Z,98313.63
2023-04-06T03:59:00.430Z,98314.75
2023-04-06T04:01:28.413Z,98324.09
2023-04-06T04:03:55.774Z,98323.59
2023-04-06T04:06:22.342Z,98327.78
2023-04-06T04:08:49.006Z,98277.03
2023-04-06T04:11:17.129Z,98331.34
2023-04-06T04:13:51.526Z,98345.72
2023-04-06T04:16:18.409Z,98346.75
2023-04-06T04:18:46.429Z,98338.75
2023-04-06T04:21:13.030Z,98349.09
2023-04-06T04:23:39.876Z,98337.63
2023-04-06T04:26:06.993Z,98341.66
2023-04-06T04:28:35.112Z,98352.56
2023-04-06T04:31:01.772Z,98344.44
2023-04-06T04:33:31.998Z,98347.13
2023-04-06T04:36:01.954Z,98345.72
2023-04-06T04:38:35.431Z,98352.34
2023-04-06T04:41:02.510Z,98349.09
2023-04-06T04:43:32.806Z,98354.03
2023-04-06T04:46:02.662Z,98337.84
2023-04-06T04:48:40.573Z,98351.38
2023-04-06T04:51:07.788Z,98352.06
2023-04-06T04:53:47.353Z,98357.34
2023-04-06T04:56:22.364Z,98361.59
2023-04-06T04:58:53.401Z,98349.88
2023-04-06T05:01:19.967Z,98347.94
2023-04-06T05:03:47.627Z,98341.06
2023-04-06T05:06:16.439Z,98344.13
2023-04-06T05:08:43.833Z,98354.03
2023-04-06T05:11:11.260Z,98349.56
2023-04-06T05:13:43.299Z,98348.09
2023-04-06T05:16:16.082Z,98343.22
2023-04-06T05:18:42.665Z,98347.34
2023-04-06T05:21:10.438Z,98346.09
2023-04-06T05:23:49.167Z,98339.38
2023-04-06T05:26:15.903Z,98343.78
2023-04-06T05:28:45.325Z,98340.78
2023-04-06T05:31:12.522Z,98349.78
2023-04-06T05:33:46.450Z,98348.84
2023-04-06T05:36:16.458Z,98344.59
2023-04-06T05:38:46.069Z,98347.38
2023-04-06T05:41:22.009Z,98353.41
2023-04-06T05:43:49.179Z,98359.00
2023-04-06T05:46:16.681Z,98350.72
2023-04-06T05:48:44.728Z,98364.19
2023-04-06T05:51:13.269Z,98361.25
2023-04-06T05:53:46.083Z,98358.63
2023-04-06T05:56:12.888Z,98361.19
2023-04-06T05:58:40.884Z,98359.59
2023-04-06T06:01:11.058Z,98352.88
2023-04-06T06:03:42.242Z,98352.50
2023-04-06T06:06:08.738Z,98351.28
2023-04-06T06:09:07.393Z,98352.22
2023-04-06T06:11:40.151Z,98355.16
2023-04-06T06:14:06.733Z,98353.28
2023-04-06T06:16:36.915Z,98354.75
2023-04-06T06:19:04.070Z,98355.28
2023-04-06T06:21:32.425Z,98349.97
2023-04-06T06:23:59.579Z,98340.91
2023-04-06T06:26:26.282Z,98339.09
2023-04-06T06:28:52.818Z,98344.16
2023-04-06T06:31:23.915Z,98346.91
2023-04-06T06:33:53.865Z,98346.66
2023-04-06T06:36:23.791Z,98347.25
2023-04-06T06:38:50.942Z,98346.31
2023-04-06T06:41:19.616Z,98346.66
2023-04-06T06:43:46.401Z,98348.00
2023-04-06T06:46:13.036Z,98349.53
2023-04-06T06:48:40.982Z,98302.91
2023-04-06T06:51:07.750Z,98345.63
2023-04-06T06:53:34.260Z,98345.38
2023-04-06T06:56:01.215Z,98341.72
2023-04-06T06:58:28.846Z,98344.28
2023-04-06T07:00:59.821Z,98341.91
2023-04-06T07:03:28.350Z,98341.16
2023-04-06T07:05:55.581Z,98337.19
2023-04-06T07:08:25.138Z,98331.34
2023-04-06T07:10:57.272Z,98335.78
2023-04-06T07:13:24.638Z,98325.03
2023-04-06T07:15:54.232Z,98332.59
2023-04-06T07:18:22.073Z,98328.84
2023-04-06T07:20:48.906Z,98324.19
2023-04-06T07:23:16.425Z,98328.97
2023-04-06T07:25:44.741Z,98313.97
2023-04-06T07:28:11.290Z,98329.00
2023-04-06T07:30:38.692Z,98322.69
2023-04-06T07:33:06.697Z,98323.09
2023-04-06T07:35:37.599Z,98326.63
2023-04-06T07:38:05.241Z,98324.94
2023-04-06T07:40:34.007Z,98323.91
2023-04-06T07:43:00.788Z,98316.34
2023-04-06T07:45:27.387Z,98309.59
2023-04-06T07:47:54.600Z,98287.47
2023-04-06T07:50:22.035Z,98318.84
2023-04-06T07:52:48.622Z,98318.41
2023-04-06T07:55:15.700Z,98316.88
2023-04-06T07:57:42.211Z,98317.38
2023-04-06T08:00:10.698Z,98316.97
2023-04-06T08:02:39.811Z,98320.41
2023-04-06T08:05:07.189Z,98318.34
2023-04-06T08:07:33.781Z,98320.75
2023-04-06T08:10:00.753Z,98319.75
2023-04-06T08:12:27.343Z,98324.81
2023-04-06T08:14:53.886Z,98313.09
2023-04-06T08:17:20.768Z,98314.25
2023-04-06T08:19:47.333Z,98314.41
2023-04-06T08:22:14.134Z,98314.09
2023-04-06T08:24:40.998Z,98309.03
2023-04-06T08:27:07.592Z,98323.72
2023-04-06T08:29:34.216Z,98314.09
2023-04-06T08:32:05.900Z,98310.34
2023-04-06T08:34:34.300Z,98313.66
2023-04-06T08:37:01.394Z,98311.91
2023-04-06T08:39:29.170Z,98302.16
2023-04-06T08:42:00.713Z,98304.63
2023-04-06T08:44:28.456Z,98303.16
2023-04-06T08:46:55.771Z,98303.09
2023-04-06T08:49:23.152Z,98294.53
2023-04-06T08:51:52.896Z,98296.94
2023-04-06T08:54:19.404Z,98281.47
2023-04-06T08:56:46.366Z,98296.00
2023-04-06T08:59:13.329Z,98286.41
2023-04-06T09:01:42.434Z,98290.47
2023-04-06T09:04:12.625Z,98271.91
2023-04-06T09:06:41.294Z,98293.59
2023-04-06T09:09:07.963Z,98287.00
2023-04-06T09:11:51.460Z,98298.88
2023-04-06T09:14:18.630Z,98289.66
2023-04-06T09:16:46.666Z,98290.88
2023-04-06T09:19:13.331Z,98301.31
2023-04-06T09:21:41.154Z,98299.03
2023-04-06T09:24:10.296Z,98297.69
2023-04-06T09:26:48.044Z,98295.00
2023-04-06T09:29:25.653Z,98296.47
2023-04-06T09:31:52.337Z,98296.78
2023-04-06T09:34:23.865Z,98297.47
2023-04-06T09:36:50.788Z,98271.28
2023-04-06T09:39:22.224Z,98299.34
2023-04-06T09:41:51.814Z,98302.78
2023-04-06T09:44:18.618Z,98296.50
2023-04-06T09:46:59.548Z,98292.50
2023-04-06T09:49:32.224Z,98295.50
2023-04-06T09:52:04.377Z,98294.38
2023-04-06T09:54:32.467Z,98279.72
2023-04-06T09:57:14.639Z,98268.28
2023-04-06T10:00:12.370Z,98278.03
2023-04-06T10:03:09.832Z,98272.91
2023-04-06T10:05:45.034Z,98283.97
2023-04-06T10:08:12.476Z,98277.56
2023-04-06T10:10:39.078Z,98290.31
2023-04-06T10:13:06.767Z,98287.88
2023-04-06T10:15:34.729Z,98284.53
2023-04-06T10:18:03.195Z,98283.97
2023-04-06T10:20:44.867Z,98277.28
2023-04-06T10:23:36.308Z,98281.63
2023-04-06T10:26:03.397Z,98270.78
2023-04-06T10:28:35.561Z,98271.97
2023-04-06T10:31:05.662Z,98269.56
2023-04-06T10:33:32.421Z,98262.00
2023-04-06T10:36:20.940Z,98263.44
2023-04-06T10:38:47.428Z,98245.41
2023-04-06T10:41:14.818Z,98271.47
2023-04-06T10:43:43.243Z,98271.91
2023-04-06T10:46:11.722Z,98276.75
2023-04-06T10:48:40.682Z,98275.16
2023-04-06T10:51:14.559Z,98280.78
2023-04-06T10:53:46.334Z,98242.16
2023-04-06T10:56:14.948Z,98258.94
2023-04-06T10:58:48.724Z,98248.78
2023-04-06T11:01:20.369Z,98261.03
2023-04-06T11:03:49.045Z,98260.31
2023-04-06T11:06:25.930Z,98249.72
2023-04-06T11:08:53.164Z,98243.63
2023-04-06T11:11:22.498Z,98249.81
2023-04-06T11:13:55.245Z,98249.72
2023-04-06T11:16:27.122Z,98250.69
2023-04-06T11:18:58.850Z,98247.31
2023-04-06T11:21:44.725Z,98253.06
2023-04-06T11:24:16.490Z,98248.91
2023-04-06T11:26:49.334Z,98248.00
2023-04-06T11:29:20.694Z,98210.28
2023-04-06T11:31:49.033Z,98231.09
2023-04-06T11:34:26.292Z,98237.78
2023-04-06T11:37:00.453Z,98235.22
2023-04-06T11:39:28.994Z,98232.66
2023-04-06T11:41:59.098Z,98229.25
2023-04-06T11:44:49.841Z,98226.91
2023-04-06T11:47:17.426Z,98226.09
2023-04-06T11:49:46.298Z,98227.31
2023-04-06T11:52:16.924Z,98220.66
2023-04-06T11:54:43.758Z,98222.88
2023-04-06T11:57:10.281Z,98219.00
2023-04-06T11:59:37.180Z,98212.16
2023-04-06T12:02:04.383Z,98209.66
2023-04-06T12:04:31.649Z,98216.94
2023-04-06T12:06:58.676Z,98211.69
2023-04-06T12:09:25.521Z,98217.72
2023-04-06T12:11:52.766Z,98219.03
2023-04-06T12:14:20.115Z,98211.81
2023-04-06T12:16:47.165Z,98215.09
2023-04-06T12:19:13.673Z,98212.16
2023-04-06T12:21:41.789Z,98216.72
2023-04-06T12:24:09.224Z,98215.53
2023-04-06T12:26:36.784Z,98209.16
2023-04-06T12:29:08.203Z,98207.63
2023-04-06T12:31:39.917Z,98212.25
2023-04-06T12:34:07.868Z,98208.25
2023-04-06T12:36:34.653Z,98192.06
2023-04-06T12:39:01.897Z,98206.22
2023-04-06T12:41:31.830Z,98200.50
2023-04-06T12:44:00.676Z,98202.69
2023-04-06T12:46:27.505Z,98188.19
2023-04-06T12:48:57.642Z,98202.47
2023-04-06T12:51:24.429Z,98200.78
2023-04-06T12:53:51.391Z,98209.69
2023-04-06T12:56:19.492Z,98203.53
2023-04-06T12:58:46.797Z,98197.09
2023-04-06T13:01:14.313Z,98203.34
2023-04-06T13:03:42.059Z,98208.72
2023-04-06T13:06:09.509Z,98194.72
2023-04-06T13:08:38.407Z,98200.78
2023-04-06T13:11:06.178Z,98161.38
2023-04-06T13:13:32.886Z,98199.91
2023-04-06T13:16:03.220Z,98197.00
2023-04-06T13:18:32.411Z,98198.78
2023-04-06T13:21:00.566Z,98201.53
2023-04-06T13:23:27.848Z,98198.84
2023-04-06T13:26:02.752Z,98195.31
2023-04-06T13:28:29.640Z,98200.91
2023-04-06T13:30:56.936Z,98207.97
2023-04-06T13:33:25.062Z,98199.63
2023-04-06T13:35:52.024Z,98209.69
2023-04-06T13:38:18.677Z,98158.75
2023-04-06T13:40:45.364Z,98187.41
2023-04-06T13:43:11.833Z,98199.56
2023-04-06T13:45:39.452Z,98197.38
2023-04-06T13:48:06.535Z,98193.94
2023-04-06T13:50:33.937Z,98188.69
2023-04-06T13:53:01.234Z,98191.66
2023-04-06T13:55:27.741Z,98196.44
2023-04-06T13:57:54.249Z,98194.97
2023-04-06T14:00:21.260Z,98202.06
2023-04-06T14:02:47.961Z,98207.50
2023-04-06T14:05:14.937Z,98200.88
2023-04-06T14:07:41.720Z,98200.91
2023-04-06T14:13:05.896Z,98196.38
2023-04-06T14:15:33.228Z,98189.44
2023-04-06T14:17:59.759Z,98200.78
2023-04-06T14:20:26.490Z,98191.47
2023-04-06T14:22:56.741Z,98200.53
2023-04-06T14:25:23.357Z,98189.16
2023-04-06T14:27:50.021Z,98189.94
2023-04-06T14:30:16.645Z,98188.34
2023-04-06T14:32:43.248Z,98187.41
2023-04-06T14:35:10.798Z,98185.81
2023-04-06T14:37:37.678Z,98206.50
2023-04-06T14:40:05.040Z,98202.69
2023-04-06T14:42:31.575Z,98154.69
2023-04-06T14:44:58.713Z,98188.16
2023-04-06T14:47:25.685Z,98193.63
2023-04-06T14:49:53.463Z,98180.03
2023-04-06T14:52:20.110Z,98180.59
2023-04-06T14:54:46.651Z,98178.50
2023-04-06T14:57:13.211Z,98180.97
2023-04-06T14:59:40.345Z,98181.53
2023-04-06T15:02:07.490Z,98178.88
2023-04-06T15:04:40.105Z,98184.78
2023-04-06T15:07:06.716Z,98149.25
2023-04-06T15:09:33.208Z,98177.38
2023-04-06T15:11:59.933Z,98188.75
2023-04-06T15:14:26.555Z,98188.06
2023-04-06T15:16:54.133Z,98173.03
2023-04-06T15:19:22.149Z,98182.13
2023-04-06T15:21:51.222Z,98183.41
2023-04-06T15:24:17.664Z,98174.69
2023-04-06T15:26:46.456Z,98177.72
2023-04-06T15:29:12.984Z,98179.22
2023-04-06T15:31:39.849Z,98181.75
2023-04-06T15:34:09.168Z,98186.66
2023-04-06T15:36:36.763Z,98192.34
2023-04-06T15:39:07.160Z,98201.06
2023-04-06T15:41:33.929Z,98207.22
2023-04-06T15:44:00.584Z,98191.97
2023-04-06T15:46:28.690Z,98202.22
2023-04-06T15:48:56.440Z,98200.69
2023-04-06T15:51:24.093Z,98205.31
2023-04-06T15:53:50.747Z,98209.97
2023-04-06T15:56:17.254Z,98156.84
2023-04-06T15:58:45.916Z,98206.09
2023-04-06T16:01:15.678Z,98205.66
2023-04-06T16:03:43.681Z,98199.94
2023-04-06T16:06:10.952Z,98202.06
2023-04-06T16:08:39.225Z,98201.97
2023-04-06T16:11:05.842Z,98217.19
2023-04-06T16:13:33.115Z,98213.56
2023-04-06T16:15:59.831Z,98213.81
2023-04-06T16:18:26.315Z,98211.44
2023-04-06T16:20:54.606Z,98213.81
2023-04-06T16:23:21.301Z,98167.66
2023-04-06T16:25:47.783Z,98205.00
2023-04-06T16:28:14.667Z,98208.94
2023-04-06T16:30:43.541Z,98213.81
2023-04-06T16:33:12.581Z,98211.59
2023-04-06T16:35:46.536Z,98216.78
2023-04-06T16:38:14.141Z,98218.59
2023-04-06T16:40:41.039Z,98215.03
2023-04-06T16:43:07.889Z,98230.84
2023-04-06T16:45:34.645Z,98226.78
2023-04-06T16:48:01.640Z,98228.31
2023-04-06T16:50:28.235Z,98233.59
2023-04-06T16:52:54.823Z,98234.81
2023-04-06T16:55:21.431Z,98235.47
2023-04-06T16:57:49.206Z,98233.97
2023-04-06T17:00:16.840Z,98233.19
2023-04-06T17:02:47.865Z,98235.25
2023-04-06T17:05:14.603Z,98241.19
2023-04-06T17:07:41.477Z,98223.63
2023-04-06T17:10:08.409Z,98235.44
2023-04-06T17:12:34.947Z,98239.38
2023-04-06T17:15:01.636Z,98235.69
2023-04-06T17:17:28.078Z,98232.94
2023-04-06T17:19:54.616Z,98242.75
2023-04-06T17:22:21.424Z,98237.03
2023-04-06T17:24:48.913Z,98203.25
2023-04-06T17:27:15.985Z,98244.50
2023-04-06T17:29:43.049Z,98244.53
2023-04-06T17:32:11.786Z,98241.22
2023-04-06T17:34:38.535Z,98245.38
2023-04-06T17:37:05.840Z,98216.28
2023-04-06T17:39:32.567Z,98234.63
2023-04-06T17:41:59.898Z,98244.72
2023-04-06T17:44:26.559Z,98250.88
2023-04-06T17:46:53.086Z,98250.06
2023-04-06T17:49:19.621Z,98250.31
2023-04-06T17:51:46.515Z,98243.19
2023-04-06T17:54:13.043Z,98250.94
2023-04-06T17:56:39.802Z,98235.25
2023-04-06T17:59:09.240Z,98254.22
2023-04-06T18:01:36.845Z,98247.28
2023-04-06T18:04:03.469Z,98250.97
2023-04-06T18:06:30.150Z,98253.44
2023-04-06T18:08:56.818Z,98251.00
2023-04-06T18:11:26.146Z,98250.16
2023-04-06T18:13:53.044Z,98248.38
2023-04-06T18:16:23.535Z,98254.09
2023-04-06T18:18:50.273Z,98252.63
2023-04-06T18:21:17.034Z,98256.53
2023-04-06T18:23:43.514Z,98255.69
2023-04-06T18:26:18.594Z,98257.13
2023-04-06T18:28:46.075Z,98253.50
2023-04-06T18:31:13.014Z,98251.84
2023-04-06T18:33:39.543Z,98260.81
2023-04-06T18:36:06.505Z,98252.84
2023-04-06T18:38:33.039Z,98256.75
2023-04-06T18:40:59.597Z,98261.44
2023-04-06T18:43:26.448Z,98260.03
2023-04-06T18:45:52.939Z,98263.69
2023-04-06T18:48:19.824Z,98249.41
2023-04-06T18:50:55.649Z,98180.41
2023-04-06T18:53:22.730Z,98260.44
2023-04-06T18:55:50.339Z,98254.50
2023-04-06T18:58:17.004Z,98267.56
2023-04-06T19:00:43.799Z,98259.41
2023-04-06T19:03:10.684Z,98255.72
2023-04-06T19:05:37.292Z,98264.50
2023-04-06T19:08:03.847Z,98263.69
2023-04-06T19:10:30.414Z,98264.50
2023-04-06T19:12:58.106Z,98264.28
2023-04-06T19:15:24.726Z,98268.16
2023-04-06T19:17:51.475Z,98266.94
2023-04-06T19:20:18.134Z,98265.72
2023-04-06T19:22:46.413Z,98263.47
2023-04-06T19:25:12.994Z,98255.91
2023-04-06T19:27:39.683Z,98257.75
2023-04-06T19:30:07.006Z,98266.56
2023-04-06T19:32:34.673Z,98268.16
2023-04-06T19:35:02.694Z,98258.56
2023-04-06T19:37:29.189Z,98268.97
2023-04-06T19:39:56.065Z,98255.91
2023-04-06T19:42:25.282Z,98265.50
2023-04-06T19:44:52.281Z,98263.63
2023-04-06T19:47:19.318Z,98255.09
2023-04-06T19:49:46.141Z,98254.28
2023-04-06T19:52:13.248Z,98255.09
2023-04-06T19:54:40.324Z,98251.84
2023-04-06T19:57:08.271Z,98252.66
2023-04-06T19:59:35.090Z,98241.81
2023-04-06T20:02:02.551Z,98246.56
2023-04-06T20:04:29.295Z,98247.13
2023-04-06T20:06:55.964Z,98227.13
2023-04-06T20:09:22.787Z,98239.16
2023-04-06T20:11:49.342Z,98238.97
2023-04-06T20:14:17.786Z,98235.72
2023-04-06T20:16:44.862Z,98238.38
2023-04-06T20:19:11.506Z,98242.25
2023-04-06T20:21:39.641Z,98236.75
2023-04-06T20:24:06.411Z,98221.00
2023-04-06T20:26:33.460Z,98236.72
2023-04-06T20:29:00.405Z,98221.22
2023-04-06T20:31:27.793Z,98222.03
2023-04-06T20:33:54.992Z,98215.91
2023-04-06T20:36:22.398Z,98211.84
2023-04-06T20:38:49.245Z,98211.81
2023-04-06T20:41:16.394Z,98218.38
2023-04-06T20:43:45.155Z,98216.31
2023-04-06T20:46:18.352Z,98214.28
2023-04-06T20:48:47.130Z,98214.47
2023-04-06T20:51:23.255Z,98216.09
2023-04-06T20:53:49.890Z,98212.63
2023-04-06T20:56:17.886Z,98209.16
2023-04-06T20:58:44.475Z,98211.00
2023-04-06T21:01:20.733Z,98213.44
2023-04-06T21:03:47.338Z,98201.38
2023-04-06T21:06:13.852Z,98198.53
2023-04-06T21:08:40.668Z,98206.09
2023-04-06T21:11:07.858Z,98199.97
2023-04-06T21:13:35.948Z,98193.06
2023-04-06T21:16:03.459Z,98196.31
2023-04-06T21:18:31.656Z,98193.88
2023-04-06T21:20:58.574Z,98196.53
2023-04-06T21:23:25.446Z,98195.28
2023-04-06T21:25:53.288Z,98195.09
2023-04-06T21:28:20.317Z,98195.50
2023-04-06T21:30:46.901Z,98192.66
2023-04-06T21:33:13.454Z,98188.97
2023-04-06T21:35:41.366Z,98193.06
2023-04-06T21:38:08.615Z,98153.66
2023-04-06T21:40:35.511Z,98177.53
2023-04-06T21:43:02.708Z,98182.41
2023-04-06T21:45:32.539Z,98184.50
2023-04-06T21:47:59.948Z,98180.38
2023-04-06T21:50:26.607Z,98175.91
2023-04-06T21:52:53.156Z,98172.63
2023-04-06T21:55:21.178Z,98180.19
2023-04-06T21:57:47.668Z,98183.06
2023-04-06T22:00:15.132Z,98142.22
2023-04-06T22:02:42.164Z,98170.41
2023-04-06T22:05:09.767Z,98179.41
2023-04-06T22:07:36.896Z,98179.19
2023-04-06T22:10:05.220Z,98183.66
2023-04-06T22:12:31.907Z,98172.66
2023-04-06T22:14:58.431Z,98182.88
2023-04-06T22:17:25.859Z,98182.03
2023-04-06T22:19:52.759Z,98172.69
2023-04-06T22:22:19.482Z,98126.75
2023-04-06T22:24:46.180Z,98160.00
2023-04-06T22:27:12.744Z,98168.16
2023-04-06T22:29:40.390Z,98164.09
2023-04-06T22:32:06.924Z,98170.63
2023-04-06T22:34:33.679Z,98160.41
2023-04-06T22:37:00.280Z,98121.66
2023-04-06T22:39:26.818Z,98167.78
2023-04-06T22:41:54.399Z,98157.97
2023-04-06T22:44:21.677Z,98159.41
2023-04-06T22:46:48.384Z,98160.00
2023-04-06T22:49:14.869Z,98160.41
2023-04-06T22:51:42.718Z,98122.88
2023-04-06T22:54:10.558Z,98155.28
2023-04-06T22:56:37.148Z,98155.91
2023-04-06T22:59:03.873Z,98152.25
2023-04-06T23:01:33.167Z,98148.78
2023-04-06T23:03:59.917Z,98139.00
2023-04-06T23:06:27.297Z,98142.88
2023-04-06T23:08:54.291Z,98141.63
2023-04-06T23:11:22.576Z,98137.16
2023-04-06T23:13:49.954Z,98084.53
2023-04-06T23:16:16.504Z,98128.19
2023-04-06T23:18:43.135Z,98127.97
2023-04-06T23:21:09.709Z,98122.88
2023-04-06T23:23:36.853Z,98118.19
2023-04-06T23:26:03.632Z,98114.50
2023-04-06T23:28:30.882Z,98120.00
2023-04-06T23:30:57.695Z,98116.13
2023-04-06T23:33:24.474Z,98114.72
2023-04-06T23:35:52.319Z,98122.06
2023-04-06T23:38:19.008Z,98117.16
2023-04-06T23:40:45.922Z,98054.97
2023-04-06T23:43:12.697Z,98120.84
2023-04-06T23:45:41.790Z,98115.94
2023-04-06T23:48:10.118Z,98113.91
2023-04-06T23:50:36.792Z,98074.53
2023-04-06T23:53:04.317Z,98112.66
2023-04-06T23:55:31.235Z,98111.00
2023-04-06T23:57:57.908Z,98097.56
